Autre station à proximité

 

CYBG - Bagotville(Can M, Quebec, Canada
Distance entre Chicoutimi et cette station: SSE 11km
Mise à jour: 15/07/2018 22:00
Few Clouds
Few Clouds
 Wind from SSO
Vent: SSO 9 km/h
Température: 20°C
Point de rosée: 15°C
Humidité: 73%
Baromètre: 1014.2 hPa
État du ciel: Few Clouds
Visibilité: 40 km
État du ciel détaillé: Few Clouds 7620 m
2018/07/16 02:00 CYBG 160200Z 21005KT 25SM FEW250 20/15 A2995 RMK CI2 SLP142
CYRJ - Roberval Airport, Quebec, Canada
Distance entre Chicoutimi et cette station: O 92km
Mise à jour: 15/07/2018 22:00
Partiellement Nuageux
Partiellement Nuageux
 Wind from SO
Vent: SO 11 km/h
Température: 21°C
Point de rosée: 15°C
Humidité: 69%
Baromètre: 1013.5 hPa
État du ciel: Partiellement Nuageux
Visibilité: 40 km
État du ciel détaillé: Few Clouds 2743 m
Partiellement Nuageux 6706 m
2018/07/16 02:00 CYRJ 160200Z 22006KT 25SM FEW090 SCT220 21/15 A2993 RMK AC1CI2 SLP137 DENSITY ALT 1500FT
 
CWJO - Jonquiere, Quebec, Canada
Distance entre Chicoutimi et cette station: O 9km
Mise à jour: 15/07/2018 22:00

 Wind from ESE
Vent: ESE 4 km/h
Température: 20°C
Point de rosée: 16°C
Humidité: 78%
2018/07/16 02:00 CWJO 160200Z AUTO 11002KT 20/16 RMK AO1 SLP146 T01960155 51005
CWXC - Onatchiway, Quebec, Canada
Distance entre Chicoutimi et cette station: N 50km
Mise à jour: 15/07/2018 22:00

 Wind from SE
Vent: SE 6 km/h
Température: 18°C
Point de rosée: 16°C
Humidité: 88%
2018/07/16 02:00 CWXC 160200Z AUTO 14003KT 18/16 RMK AO1 SLP135 T01780157 51005
 
CWIX - Mistook , Quebec, Canada
Distance entre Chicoutimi et cette station: ONO 55km
Mise à jour: 15/07/2018 21:00
NOT Current

 Wind from S
Vent: S 9 km/h
Température: 19°C
Point de rosée: 15°C
Humidité: 78%
2018/07/16 01:00 CWIX 160100Z AUTO 17005KT 19/15 RMK AO1 SLP128 T01920151 50001
CWQV - Pointe Claveau, Quebec, Canada
Distance entre Chicoutimi et cette station: ESE 69km
Mise à jour: 15/07/2018 22:00

 Wind from O
Vent: O 2 km/h
Température: 20°C
2018/07/16 02:00 CWQV 160200Z AUTO 28001KT 20/ RMK AO1 T0204
 
CWPD - Parc Des Laurent, Quebec, Canada
Distance entre Chicoutimi et cette station: S 97km
Mise à jour: 15/07/2018 22:00

 Wind from SSO
Vent: SSO 6 km/h
Température: 12°C
Point de rosée: 11°C
Humidité: 94%
2018/07/16 02:00 CWPD 160200Z AUTO 21003KT 12/11 RMK AO1 SLP142 T01160106 51005
CWOD - Normandin, Quebec, Canada
Distance entre Chicoutimi et cette station: ONO 129km
Mise à jour: 15/07/2018 22:00

 Wind from SSO
Vent: SSO 11 km/h
Température: 19°C
Point de rosée: 16°C
Humidité: 83%
2018/07/16 02:00 CWOD 160200Z AUTO 20006KT 19/16 RMK AO1 SLP115 T01910164 53002
 
CWIS - Charlevoix (mrx), Quebec, Canada
Distance entre Chicoutimi et cette station: SSE 120km
Mise à jour: 15/07/2018 22:00

 Wind from SE
Vent: SE 4 km/h
Température: 14°C
Point de rosée: 14°C
Humidité: 100%
2018/07/16 02:00 CWIS 160200Z AUTO 13002KT 14/14 RMK AO1 SLP164 T01430143 50005